sensor_id;sensor_type;location;lat;lon;timestamp;temperature;humidity
17984;DHT22;9117;52.420;20.728;2023-04-23T00:01:15;9.80;89.00
17984;DHT22;9117;52.420;20.728;2023-04-23T00:03:45;9.70;89.40
17984;DHT22;9117;52.420;20.728;2023-04-23T00:06:15;9.50;87.20
17984;DHT22;9117;52.420;20.728;2023-04-23T00:08:47;9.50;90.50
17984;DHT22;9117;52.420;20.728;2023-04-23T00:11:16;9.60;91.40
17984;DHT22;9117;52.420;20.728;2023-04-23T00:13:44;9.50;91.60
17984;DHT22;9117;52.420;20.728;2023-04-23T00:16:15;9.70;91.60
17984;DHT22;9117;52.420;20.728;2023-04-23T00:18:43;9.60;87.20
17984;DHT22;9117;52.420;20.728;2023-04-23T00:21:12;9.40;90.00
17984;DHT22;9117;52.420;20.728;2023-04-23T00:23:41;9.30;91.30
17984;DHT22;9117;52.420;20.728;2023-04-23T00:26:10;9.30;91.50
17984;DHT22;9117;52.420;20.728;2023-04-23T00:28:38;9.40;91.30
17984;DHT22;9117;52.420;20.728;2023-04-23T00:31:07;9.40;92.30
17984;DHT22;9117;52.420;20.728;2023-04-23T00:33:35;9.40;93.70
17984;DHT22;9117;52.420;20.728;2023-04-23T00:36:05;9.30;91.30
17984;DHT22;9117;52.420;20.728;2023-04-23T00:38:33;9.30;92.20
17984;DHT22;9117;52.420;20.728;2023-04-23T00:41:02;9.30;93.20
17984;DHT22;9117;52.420;20.728;2023-04-23T00:43:32;9.30;91.10
17984;DHT22;9117;52.420;20.728;2023-04-23T00:46:00;9.10;92.70
17984;DHT22;9117;52.420;20.728;2023-04-23T00:48:29;9.20;91.30
17984;DHT22;9117;52.420;20.728;2023-04-23T00:50:58;9.10;91.00
17984;DHT22;9117;52.420;20.728;2023-04-23T00:53:27;9.00;91.10
17984;DHT22;9117;52.420;20.728;2023-04-23T00:55:55;8.90;92.50
17984;DHT22;9117;52.420;20.728;2023-04-23T00:58:24;9.00;92.40
17984;DHT22;9117;52.420;20.728;2023-04-23T01:00:54;9.10;91.90
17984;DHT22;9117;52.420;20.728;2023-04-23T01:03:25;9.10;93.40
17984;DHT22;9117;52.420;20.728;2023-04-23T01:05:55;8.90;91.80
17984;DHT22;9117;52.420;20.728;2023-04-23T01:08:24;8.90;91.70
17984;DHT22;9117;52.420;20.728;2023-04-23T01:10:53;8.90;92.40
17984;DHT22;9117;52.420;20.728;2023-04-23T01:13:21;8.90;93.20
17984;DHT22;9117;52.420;20.728;2023-04-23T01:15:53;8.80;92.00
17984;DHT22;9117;52.420;20.728;2023-04-23T01:18:22;8.80;91.50
17984;DHT22;9117;52.420;20.728;2023-04-23T01:20:50;8.90;90.80
17984;DHT22;9117;52.420;20.728;2023-04-23T01:23:20;8.90;88.90
17984;DHT22;9117;52.420;20.728;2023-04-23T01:25:49;8.90;88.50
17984;DHT22;9117;52.420;20.728;2023-04-23T01:28:17;8.70;88.70
17984;DHT22;9117;52.420;20.728;2023-04-23T01:30:46;8.70;89.90
17984;DHT22;9117;52.420;20.728;2023-04-23T01:33:15;8.60;90.20
17984;DHT22;9117;52.420;20.728;2023-04-23T01:35:45;8.60;90.20
17984;DHT22;9117;52.420;20.728;2023-04-23T01:38:15;8.60;85.00
17984;DHT22;9117;52.420;20.728;2023-04-23T01:40:46;8.60;90.00
17984;DHT22;9117;52.420;20.728;2023-04-23T01:43:14;8.60;90.00
17984;DHT22;9117;52.420;20.728;2023-04-23T01:45:44;8.70;91.00
17984;DHT22;9117;52.420;20.728;2023-04-23T01:48:12;8.60;84.00
17984;DHT22;9117;52.420;20.728;2023-04-23T01:50:40;8.50;83.10
17984;DHT22;9117;52.420;20.728;2023-04-23T01:53:09;8.40;87.40
17984;DHT22;9117;52.420;20.728;2023-04-23T01:55:38;8.40;90.00
17984;DHT22;9117;52.420;20.728;2023-04-23T01:58:08;8.40;89.20
17984;DHT22;9117;52.420;20.728;2023-04-23T02:00:36;8.50;85.10
17984;DHT22;9117;52.420;20.728;2023-04-23T02:03:04;8.40;87.80
17984;DHT22;9117;52.420;20.728;2023-04-23T02:05:34;8.40;88.30
17984;DHT22;9117;52.420;20.728;2023-04-23T02:08:03;8.40;85.80
17984;DHT22;9117;52.420;20.728;2023-04-23T02:10:31;8.30;87.00
17984;DHT22;9117;52.420;20.728;2023-04-23T02:13:01;8.30;82.90
17984;DHT22;9117;52.420;20.728;2023-04-23T02:15:31;8.20;84.80
17984;DHT22;9117;52.420;20.728;2023-04-23T02:17:59;8.30;86.70
17984;DHT22;9117;52.420;20.728;2023-04-23T02:20:28;8.20;85.40
17984;DHT22;9117;52.420;20.728;2023-04-23T02:22:56;8.00;81.90
17984;DHT22;9117;52.420;20.728;2023-04-23T02:25:24;8.10;86.90
17984;DHT22;9117;52.420;20.728;2023-04-23T02:27:52;8.00;88.10
17984;DHT22;9117;52.420;20.728;2023-04-23T02:30:23;8.00;87.70
17984;DHT22;9117;52.420;20.728;2023-04-23T02:32:53;8.00;85.70
17984;DHT22;9117;52.420;20.728;2023-04-23T02:35:21;7.90;86.70
17984;DHT22;9117;52.420;20.728;2023-04-23T02:37:50;7.90;87.50
17984;DHT22;9117;52.420;20.728;2023-04-23T02:40:20;7.90;90.20
17984;DHT22;9117;52.420;20.728;2023-04-23T02:42:48;7.90;90.60
17984;DHT22;9117;52.420;20.728;2023-04-23T02:45:16;7.80;89.40
17984;DHT22;9117;52.420;20.728;2023-04-23T02:47:45;7.70;89.30
17984;DHT22;9117;52.420;20.728;2023-04-23T02:50:14;7.70;88.20
17984;DHT22;9117;52.420;20.728;2023-04-23T02:52:43;7.70;92.20
17984;DHT22;9117;52.420;20.728;2023-04-23T02:55:11;7.80;89.30
17984;DHT22;9117;52.420;20.728;2023-04-23T02:57:39;7.80;91.00
17984;DHT22;9117;52.420;20.728;2023-04-23T03:00:09;7.70;92.10
17984;DHT22;9117;52.420;20.728;2023-04-23T03:02:38;7.60;91.90
17984;DHT22;9117;52.420;20.728;2023-04-23T03:05:07;7.60;90.40
17984;DHT22;9117;52.420;20.728;2023-04-23T03:07:37;7.60;91.40
17984;DHT22;9117;52.420;20.728;2023-04-23T03:10:06;7.60;90.60
17984;DHT22;9117;52.420;20.728;2023-04-23T03:12:35;7.60;90.50
17984;DHT22;9117;52.420;20.728;2023-04-23T03:15:04;7.70;91.20
17984;DHT22;9117;52.420;20.728;2023-04-23T03:17:32;7.70;90.60
17984;DHT22;9117;52.420;20.728;2023-04-23T03:20:02;7.70;91.40
17984;DHT22;9117;52.420;20.728;2023-04-23T03:22:30;7.60;90.20
17984;DHT22;9117;52.420;20.728;2023-04-23T03:25:00;7.50;89.70
17984;DHT22;9117;52.420;20.728;2023-04-23T03:27:28;7.50;90.20
17984;DHT22;9117;52.420;20.728;2023-04-23T03:29:56;7.50;90.70
17984;DHT22;9117;52.420;20.728;2023-04-23T03:32:25;7.40;87.90
17984;DHT22;9117;52.420;20.728;2023-04-23T03:34:53;7.40;89.00
17984;DHT22;9117;52.420;20.728;2023-04-23T03:37:21;7.20;87.10
17984;DHT22;9117;52.420;20.728;2023-04-23T03:39:49;7.00;91.50
17984;DHT22;9117;52.420;20.728;2023-04-23T03:42:19;7.10;92.40
17984;DHT22;9117;52.420;20.728;2023-04-23T03:44:47;7.10;91.80
17984;DHT22;9117;52.420;20.728;2023-04-23T03:47:15;7.20;91.90
17984;DHT22;9117;52.420;20.728;2023-04-23T03:49:44;7.30;91.50
17984;DHT22;9117;52.420;20.728;2023-04-23T03:52:12;7.20;92.70
17984;DHT22;9117;52.420;20.728;2023-04-23T03:54:40;7.30;93.30
17984;DHT22;9117;52.420;20.728;2023-04-23T03:57:09;7.30;92.30
17984;DHT22;9117;52.420;20.728;2023-04-23T03:59:39;7.30;93.90
17984;DHT22;9117;52.420;20.728;2023-04-23T04:02:07;7.40;94.90
17984;DHT22;9117;52.420;20.728;2023-04-23T04:04:35;7.40;92.50
17984;DHT22;9117;52.420;20.728;2023-04-23T04:07:04;7.40;92.80
17984;DHT22;9117;52.420;20.728;2023-04-23T04:09:33;7.40;94.10
17984;DHT22;9117;52.420;20.728;2023-04-23T04:12:01;7.30;92.50
17984;DHT22;9117;52.420;20.728;2023-04-23T04:14:30;7.30;94.40
17984;DHT22;9117;52.420;20.728;2023-04-23T04:16:59;7.20;94.50
17984;DHT22;9117;52.420;20.728;2023-04-23T04:19:27;7.30;94.20
17984;DHT22;9117;52.420;20.728;2023-04-23T04:21:56;7.40;94.60
17984;DHT22;9117;52.420;20.728;2023-04-23T04:24:24;7.40;95.10
17984;DHT22;9117;52.420;20.728;2023-04-23T04:26:53;7.40;94.50
17984;DHT22;9117;52.420;20.728;2023-04-23T04:29:21;7.40;93.30
17984;DHT22;9117;52.420;20.728;2023-04-23T04:31:50;7.50;93.60
17984;DHT22;9117;52.420;20.728;2023-04-23T04:34:19;7.60;94.50
17984;DHT22;9117;52.420;20.728;2023-04-23T04:36:48;7.70;93.80
17984;DHT22;9117;52.420;20.728;2023-04-23T04:39:17;7.80;94.40
17984;DHT22;9117;52.420;20.728;2023-04-23T04:41:45;7.90;94.20
17984;DHT22;9117;52.420;20.728;2023-04-23T04:44:14;7.90;94.40
17984;DHT22;9117;52.420;20.728;2023-04-23T04:46:43;7.80;94.20
17984;DHT22;9117;52.420;20.728;2023-04-23T04:49:12;7.80;95.20
17984;DHT22;9117;52.420;20.728;2023-04-23T04:51:41;8.00;93.70
17984;DHT22;9117;52.420;20.728;2023-04-23T04:54:09;8.10;94.80
17984;DHT22;9117;52.420;20.728;2023-04-23T04:56:37;8.20;95.50
17984;DHT22;9117;52.420;20.728;2023-04-23T04:59:06;8.20;94.10
17984;DHT22;9117;52.420;20.728;2023-04-23T05:01:34;8.30;95.20
17984;DHT22;9117;52.420;20.728;2023-04-23T05:04:03;8.40;95.80
17984;DHT22;9117;52.420;20.728;2023-04-23T05:06:31;8.50;93.40
17984;DHT22;9117;52.420;20.728;2023-04-23T05:09:01;8.60;94.40
17984;DHT22;9117;52.420;20.728;2023-04-23T05:11:29;8.70;96.90
17984;DHT22;9117;52.420;20.728;2023-04-23T05:13:58;8.80;93.70
17984;DHT22;9117;52.420;20.728;2023-04-23T05:16:26;8.90;93.60
17984;DHT22;9117;52.420;20.728;2023-04-23T05:18:55;9.00;93.30
17984;DHT22;9117;52.420;20.728;2023-04-23T05:21:23;9.10;94.60
17984;DHT22;9117;52.420;20.728;2023-04-23T05:23:53;9.20;95.10
17984;DHT22;9117;52.420;20.728;2023-04-23T05:26:22;9.40;95.70
17984;DHT22;9117;52.420;20.728;2023-04-23T05:28:51;9.50;94.60
17984;DHT22;9117;52.420;20.728;2023-04-23T05:31:19;9.60;92.40
17984;DHT22;9117;52.420;20.728;2023-04-23T05:33:47;9.70;91.30
17984;DHT22;9117;52.420;20.728;2023-04-23T05:36:17;9.90;94.10
17984;DHT22;9117;52.420;20.728;2023-04-23T05:38:45;10.10;91.80
17984;DHT22;9117;52.420;20.728;2023-04-23T05:41:14;10.20;91.60
17984;DHT22;9117;52.420;20.728;2023-04-23T05:43:44;10.30;86.30
17984;DHT22;9117;52.420;20.728;2023-04-23T05:46:12;10.40;90.00
17984;DHT22;9117;52.420;20.728;2023-04-23T05:48:40;10.50;88.00
17984;DHT22;9117;52.420;20.728;2023-04-23T05:51:09;10.70;86.30
17984;DHT22;9117;52.420;20.728;2023-04-23T05:53:38;10.80;90.00
17984;DHT22;9117;52.420;20.728;2023-04-23T05:56:06;10.90;86.20
17984;DHT22;9117;52.420;20.728;2023-04-23T05:58:34;11.00;86.40
17984;DHT22;9117;52.420;20.728;2023-04-23T06:01:06;11.10;85.40
17984;DHT22;9117;52.420;20.728;2023-04-23T06:03:34;11.20;91.00
17984;DHT22;9117;52.420;20.728;2023-04-23T06:06:04;11.30;90.00
17984;DHT22;9117;52.420;20.728;2023-04-23T06:08:32;11.50;89.00
17984;DHT22;9117;52.420;20.728;2023-04-23T06:11:00;11.60;89.70
17984;DHT22;9117;52.420;20.728;2023-04-23T06:13:28;11.70;88.00
17984;DHT22;9117;52.420;20.728;2023-04-23T06:15:57;11.80;85.80
17984;DHT22;9117;52.420;20.728;2023-04-23T06:18:27;12.00;90.70
17984;DHT22;9117;52.420;20.728;2023-04-23T06:20:55;12.10;88.10
17984;DHT22;9117;52.420;20.728;2023-04-23T06:23:23;12.20;88.40
17984;DHT22;9117;52.420;20.728;2023-04-23T06:25:51;12.40;90.00
17984;DHT22;9117;52.420;20.728;2023-04-23T06:28:20;12.50;86.60
17984;DHT22;9117;52.420;20.728;2023-04-23T06:30:48;12.60;84.20
17984;DHT22;9117;52.420;20.728;2023-04-23T06:33:16;12.70;83.80
17984;DHT22;9117;52.420;20.728;2023-04-23T06:35:46;12.80;85.70
17984;DHT22;9117;52.420;20.728;2023-04-23T06:38:14;13.00;87.80
17984;DHT22;9117;52.420;20.728;2023-04-23T06:40:44;13.20;81.90
17984;DHT22;9117;52.420;20.728;2023-04-23T06:43:12;13.30;84.10
17984;DHT22;9117;52.420;20.728;2023-04-23T06:45:41;13.50;84.90
17984;DHT22;9117;52.420;20.728;2023-04-23T06:48:09;13.60;82.00
17984;DHT22;9117;52.420;20.728;2023-04-23T06:50:37;13.80;84.20
17984;DHT22;9117;52.420;20.728;2023-04-23T06:53:07;14.00;82.50
17984;DHT22;9117;52.420;20.728;2023-04-23T06:55:35;14.20;83.10
17984;DHT22;9117;52.420;20.728;2023-04-23T06:58:04;14.30;82.10
17984;DHT22;9117;52.420;20.728;2023-04-23T07:00:33;14.40;78.50
17984;DHT22;9117;52.420;20.728;2023-04-23T07:03:01;14.60;83.40
17984;DHT22;9117;52.420;20.728;2023-04-23T07:05:30;14.70;77.80
17984;DHT22;9117;52.420;20.728;2023-04-23T07:07:58;14.80;79.30
17984;DHT22;9117;52.420;20.728;2023-04-23T07:10:28;15.00;81.80
17984;DHT22;9117;52.420;20.728;2023-04-23T07:12:56;15.10;76.50
17984;DHT22;9117;52.420;20.728;2023-04-23T07:15:24;15.20;80.80
17984;DHT22;9117;52.420;20.728;2023-04-23T07:17:53;15.40;77.60
17984;DHT22;9117;52.420;20.728;2023-04-23T07:20:21;15.50;72.50
17984;DHT22;9117;52.420;20.728;2023-04-23T07:22:49;15.70;72.70
17984;DHT22;9117;52.420;20.728;2023-04-23T07:25:18;15.80;74.50
17984;DHT22;9117;52.420;20.728;2023-04-23T07:27:49;15.90;74.70
17984;DHT22;9117;52.420;20.728;2023-04-23T07:30:18;16.10;70.60
17984;DHT22;9117;52.420;20.728;2023-04-23T07:32:46;16.30;72.30
17984;DHT22;9117;52.420;20.728;2023-04-23T07:35:14;16.40;69.20
17984;DHT22;9117;52.420;20.728;2023-04-23T07:37:43;16.50;66.80
17984;DHT22;9117;52.420;20.728;2023-04-23T07:40:11;16.70;67.80
17984;DHT22;9117;52.420;20.728;2023-04-23T07:42:39;16.90;64.70
17984;DHT22;9117;52.420;20.728;2023-04-23T07:45:09;16.90;62.20
17984;DHT22;9117;52.420;20.728;2023-04-23T07:47:38;17.00;60.80
17984;DHT22;9117;52.420;20.728;2023-04-23T07:50:07;17.10;59.60
17984;DHT22;9117;52.420;20.728;2023-04-23T07:52:36;17.20;57.90
17984;DHT22;9117;52.420;20.728;2023-04-23T07:55:05;17.40;55.70
17984;DHT22;9117;52.420;20.728;2023-04-23T07:57:33;17.40;56.20
17984;DHT22;9117;52.420;20.728;2023-04-23T08:00:01;17.50;56.50
17984;DHT22;9117;52.420;20.728;2023-04-23T08:02:31;17.50;57.60
17984;DHT22;9117;52.420;20.728;2023-04-23T08:04:59;17.70;58.40
17984;DHT22;9117;52.420;20.728;2023-04-23T08:07:27;17.90;56.30
17984;DHT22;9117;52.420;20.728;2023-04-23T08:09:56;17.90;53.30
17984;DHT22;9117;52.420;20.728;2023-04-23T08:12:28;18.00;50.70
17984;DHT22;9117;52.420;20.728;2023-04-23T08:14:57;18.10;53.00
17984;DHT22;9117;52.420;20.728;2023-04-23T08:17:25;18.20;52.60
17984;DHT22;9117;52.420;20.728;2023-04-23T08:19:55;18.20;55.10
17984;DHT22;9117;52.420;20.728;2023-04-23T08:22:23;18.30;52.20
17984;DHT22;9117;52.420;20.728;2023-04-23T08:24:51;18.60;50.00
17984;DHT22;9117;52.420;20.728;2023-04-23T08:27:19;18.40;49.10
17984;DHT22;9117;52.420;20.728;2023-04-23T08:29:48;18.50;50.00
17984;DHT22;9117;52.420;20.728;2023-04-23T08:32:17;18.60;48.90
17984;DHT22;9117;52.420;20.728;2023-04-23T08:34:46;18.60;48.60
17984;DHT22;9117;52.420;20.728;2023-04-23T08:37:16;18.60;49.60
17984;DHT22;9117;52.420;20.728;2023-04-23T08:39:56;18.70;49.50
17984;DHT22;9117;52.420;20.728;2023-04-23T08:42:42;18.70;47.50
17984;DHT22;9117;52.420;20.728;2023-04-23T08:45:12;18.80;48.00
17984;DHT22;9117;52.420;20.728;2023-04-23T08:47:41;18.90;49.60
17984;DHT22;9117;52.420;20.728;2023-04-23T08:50:11;19.00;48.80
17984;DHT22;9117;52.420;20.728;2023-04-23T08:52:43;19.10;49.10
17984;DHT22;9117;52.420;20.728;2023-04-23T08:55:14;19.10;47.00
17984;DHT22;9117;52.420;20.728;2023-04-23T08:57:45;19.20;47.00
17984;DHT22;9117;52.420;20.728;2023-04-23T09:00:15;19.20;45.50
17984;DHT22;9117;52.420;20.728;2023-04-23T09:02:44;19.20;45.10
17984;DHT22;9117;52.420;20.728;2023-04-23T09:05:13;19.30;44.30
17984;DHT22;9117;52.420;20.728;2023-04-23T09:07:43;19.40;45.00
17984;DHT22;9117;52.420;20.728;2023-04-23T09:10:12;19.50;43.80
17984;DHT22;9117;52.420;20.728;2023-04-23T09:12:44;19.40;43.00
17984;DHT22;9117;52.420;20.728;2023-04-23T09:15:14;19.60;43.40
17984;DHT22;9117;52.420;20.728;2023-04-23T09:17:43;19.60;40.30
17984;DHT22;9117;52.420;20.728;2023-04-23T09:20:13;19.60;40.10
17984;DHT22;9117;52.420;20.728;2023-04-23T09:22:44;19.70;41.90
17984;DHT22;9117;52.420;20.728;2023-04-23T09:25:15;19.70;41.50
17984;DHT22;9117;52.420;20.728;2023-04-23T09:27:44;19.90;40.10
17984;DHT22;9117;52.420;20.728;2023-04-23T09:30:13;19.80;38.40
17984;DHT22;9117;52.420;20.728;2023-04-23T09:32:43;19.80;38.40
17984;DHT22;9117;52.420;20.728;2023-04-23T09:35:14;19.90;38.50
17984;DHT22;9117;52.420;20.728;2023-04-23T09:37:45;19.70;38.70
17984;DHT22;9117;52.420;20.728;2023-04-23T09:40:17;19.80;39.10
17984;DHT22;9117;52.420;20.728;2023-04-23T09:42:47;20.10;40.40
17984;DHT22;9117;52.420;20.728;2023-04-23T09:45:17;20.10;38.80
17984;DHT22;9117;52.420;20.728;2023-04-23T09:47:50;20.10;38.70
17984;DHT22;9117;52.420;20.728;2023-04-23T09:50:19;20.10;38.90
17984;DHT22;9117;52.420;20.728;2023-04-23T09:52:59;20.30;39.40
17984;DHT22;9117;52.420;20.728;2023-04-23T09:55:29;20.20;37.90
17984;DHT22;9117;52.420;20.728;2023-04-23T09:58:02;20.30;38.60
17984;DHT22;9117;52.420;20.728;2023-04-23T10:00:35;20.20;36.40
17984;DHT22;9117;52.420;20.728;2023-04-23T10:03:05;20.30;37.30
17984;DHT22;9117;52.420;20.728;2023-04-23T10:05:37;20.40;36.40
17984;DHT22;9117;52.420;20.728;2023-04-23T10:08:27;20.30;36.00
17984;DHT22;9117;52.420;20.728;2023-04-23T10:10:56;20.50;35.10
17984;DHT22;9117;52.420;20.728;2023-04-23T10:13:40;20.60;36.60
17984;DHT22;9117;52.420;20.728;2023-04-23T10:16:09;20.40;36.40
17984;DHT22;9117;52.420;20.728;2023-04-23T10:18:51;20.50;37.50
17984;DHT22;9117;52.420;20.728;2023-04-23T10:21:24;20.60;39.00
17984;DHT22;9117;52.420;20.728;2023-04-23T10:24:09;20.70;38.50
17984;DHT22;9117;52.420;20.728;2023-04-23T10:26:38;20.80;35.60
17984;DHT22;9117;52.420;20.728;2023-04-23T10:29:13;21.00;36.00
17984;DHT22;9117;52.420;20.728;2023-04-23T10:31:41;21.30;35.90
17984;DHT22;9117;52.420;20.728;2023-04-23T10:34:10;20.90;35.50
17984;DHT22;9117;52.420;20.728;2023-04-23T10:36:38;20.90;34.10
17984;DHT22;9117;52.420;20.728;2023-04-23T10:39:08;21.10;35.20
17984;DHT22;9117;52.420;20.728;2023-04-23T10:41:38;21.30;34.20
17984;DHT22;9117;52.420;20.728;2023-04-23T10:44:11;21.10;33.50
17984;DHT22;9117;52.420;20.728;2023-04-23T10:46:51;21.10;32.20
17984;DHT22;9117;52.420;20.728;2023-04-23T10:49:21;21.20;31.90
17984;DHT22;9117;52.420;20.728;2023-04-23T10:51:58;21.30;31.40
17984;DHT22;9117;52.420;20.728;2023-04-23T10:54:31;21.30;32.30
17984;DHT22;9117;52.420;20.728;2023-04-23T10:57:02;21.00;33.10
17984;DHT22;9117;52.420;20.728;2023-04-23T10:59:32;21.20;34.90
17984;DHT22;9117;52.420;20.728;2023-04-23T11:02:05;21.40;35.80
17984;DHT22;9117;52.420;20.728;2023-04-23T11:04:36;21.50;34.90
17984;DHT22;9117;52.420;20.728;2023-04-23T11:07:09;21.50;34.20
17984;DHT22;9117;52.420;20.728;2023-04-23T11:09:40;21.50;32.40
17984;DHT22;9117;52.420;20.728;2023-04-23T11:12:10;21.60;32.90
17984;DHT22;9117;52.420;20.728;2023-04-23T11:14:46;21.60;32.30
17984;DHT22;9117;52.420;20.728;2023-04-23T11:17:15;21.70;32.90
17984;DHT22;9117;52.420;20.728;2023-04-23T11:20:05;21.70;31.30
17984;DHT22;9117;52.420;20.728;2023-04-23T11:22:37;21.70;32.00
17984;DHT22;9117;52.420;20.728;2023-04-23T11:25:10;21.70;30.10
17984;DHT22;9117;52.420;20.728;2023-04-23T11:27:39;21.50;29.70
17984;DHT22;9117;52.420;20.728;2023-04-23T11:30:11;21.60;30.80
17984;DHT22;9117;52.420;20.728;2023-04-23T11:32:40;21.80;30.10
17984;DHT22;9117;52.420;20.728;2023-04-23T11:35:09;21.90;30.90
17984;DHT22;9117;52.420;20.728;2023-04-23T11:37:40;22.00;31.30
17984;DHT22;9117;52.420;20.728;2023-04-23T11:40:11;22.00;31.30
17984;DHT22;9117;52.420;20.728;2023-04-23T11:42:45;22.10;30.30
17984;DHT22;9117;52.420;20.728;2023-04-23T11:45:17;21.80;29.70
17984;DHT22;9117;52.420;20.728;2023-04-23T11:47:47;21.90;30.00
17984;DHT22;9117;52.420;20.728;2023-04-23T11:50:17;22.00;29.50
17984;DHT22;9117;52.420;20.728;2023-04-23T11:52:46;21.70;29.00
17984;DHT22;9117;52.420;20.728;2023-04-23T11:55:16;21.90;30.30
17984;DHT22;9117;52.420;20.728;2023-04-23T11:57:45;22.00;29.80
17984;DHT22;9117;52.420;20.728;2023-04-23T12:00:16;22.30;29.50
17984;DHT22;9117;52.420;20.728;2023-04-23T12:02:55;22.70;29.80
17984;DHT22;9117;52.420;20.728;2023-04-23T12:05:27;22.40;28.70
17984;DHT22;9117;52.420;20.728;2023-04-23T12:08:06;22.50;28.50
17984;DHT22;9117;52.420;20.728;2023-04-23T12:10:43;22.70;30.30
17984;DHT22;9117;52.420;20.728;2023-04-23T12:13:15;22.90;29.20
17984;DHT22;9117;52.420;20.728;2023-04-23T12:15:45;22.90;28.30
17984;DHT22;9117;52.420;20.728;2023-04-23T12:18:14;23.00;29.30
17984;DHT22;9117;52.420;20.728;2023-04-23T12:20:42;22.80;27.70
17984;DHT22;9117;52.420;20.728;2023-04-23T12:23:11;22.80;28.00
17984;DHT22;9117;52.420;20.728;2023-04-23T12:25:39;22.90;28.00
17984;DHT22;9117;52.420;20.728;2023-04-23T12:28:10;22.70;27.70
17984;DHT22;9117;52.420;20.728;2023-04-23T12:30:43;22.90;28.10
17984;DHT22;9117;52.420;20.728;2023-04-23T12:33:11;23.20;28.60
17984;DHT22;9117;52.420;20.728;2023-04-23T12:35:40;23.30;27.60
17984;DHT22;9117;52.420;20.728;2023-04-23T12:38:20;23.40;27.60
17984;DHT22;9117;52.420;20.728;2023-04-23T12:40:49;23.50;28.50
17984;DHT22;9117;52.420;20.728;2023-04-23T12:43:19;23.70;28.00
17984;DHT22;9117;52.420;20.728;2023-04-23T12:45:47;23.80;28.30
17984;DHT22;9117;52.420;20.728;2023-04-23T12:48:17;24.40;27.20
17984;DHT22;9117;52.420;20.728;2023-04-23T12:50:45;24.50;26.70
17984;DHT22;9117;52.420;20.728;2023-04-23T12:53:14;24.70;26.40
17984;DHT22;9117;52.420;20.728;2023-04-23T12:55:42;25.50;26.10
17984;DHT22;9117;52.420;20.728;2023-04-23T12:58:11;25.10;26.30
17984;DHT22;9117;52.420;20.728;2023-04-23T13:00:41;25.20;25.50
17984;DHT22;9117;52.420;20.728;2023-04-23T13:03:09;25.30;26.20
17984;DHT22;9117;52.420;20.728;2023-04-23T13:05:39;24.70;26.70
17984;DHT22;9117;52.420;20.728;2023-04-23T13:08:08;24.70;26.20
17984;DHT22;9117;52.420;20.728;2023-04-23T13:10:36;24.70;25.60
17984;DHT22;9117;52.420;20.728;2023-04-23T13:13:04;25.30;26.20
17984;DHT22;9117;52.420;20.728;2023-04-23T13:15:32;24.70;24.70
17984;DHT22;9117;52.420;20.728;2023-04-23T13:18:02;25.00;24.80
17984;DHT22;9117;52.420;20.728;2023-04-23T13:20:30;25.10;25.20
17984;DHT22;9117;52.420;20.728;2023-04-23T13:22:58;25.20;24.40
17984;DHT22;9117;52.420;20.728;2023-04-23T13:25:28;25.80;24.70
17984;DHT22;9117;52.420;20.728;2023-04-23T13:27:56;25.50;24.30
17984;DHT22;9117;52.420;20.728;2023-04-23T13:30:25;25.60;23.80
17984;DHT22;9117;52.420;20.728;2023-04-23T13:32:53;25.40;23.80
17984;DHT22;9117;52.420;20.728;2023-04-23T13:35:24;24.80;23.70
17984;DHT22;9117;52.420;20.728;2023-04-23T13:37:52;25.00;24.70
17984;DHT22;9117;52.420;20.728;2023-04-23T13:40:21;24.90;24.80
17984;DHT22;9117;52.420;20.728;2023-04-23T13:42:49;25.40;24.70
17984;DHT22;9117;52.420;20.728;2023-04-23T13:45:19;25.90;23.90
17984;DHT22;9117;52.420;20.728;2023-04-23T13:47:47;25.80;23.80
17984;DHT22;9117;52.420;20.728;2023-04-23T13:50:15;26.00;24.10
17984;DHT22;9117;52.420;20.728;2023-04-23T13:52:45;26.20;24.50
17984;DHT22;9117;52.420;20.728;2023-04-23T13:55:13;26.80;23.70
17984;DHT22;9117;52.420;20.728;2023-04-23T13:57:42;26.50;22.80
17984;DHT22;9117;52.420;20.728;2023-04-23T14:00:12;26.90;24.60
17984;DHT22;9117;52.420;20.728;2023-04-23T14:02:40;26.40;23.10
17984;DHT22;9117;52.420;20.728;2023-04-23T14:05:09;26.10;22.80
17984;DHT22;9117;52.420;20.728;2023-04-23T14:07:37;25.50;22.70
17984;DHT22;9117;52.420;20.728;2023-04-23T14:10:07;25.30;24.00
17984;DHT22;9117;52.420;20.728;2023-04-23T14:12:36;25.50;23.50
17984;DHT22;9117;52.420;20.728;2023-04-23T14:15:05;25.50;23.90
17984;DHT22;9117;52.420;20.728;2023-04-23T14:17:34;25.70;23.10
17984;DHT22;9117;52.420;20.728;2023-04-23T14:20:03;25.30;23.20
17984;DHT22;9117;52.420;20.728;2023-04-23T14:22:32;25.20;23.70
17984;DHT22;9117;52.420;20.728;2023-04-23T14:25:01;26.40;24.20
17984;DHT22;9117;52.420;20.728;2023-04-23T14:27:38;26.60;22.70
17984;DHT22;9117;52.420;20.728;2023-04-23T14:30:17;26.30;23.10
17984;DHT22;9117;52.420;20.728;2023-04-23T14:32:46;25.60;24.40
17984;DHT22;9117;52.420;20.728;2023-04-23T14:35:16;26.10;23.50
17984;DHT22;9117;52.420;20.728;2023-04-23T14:37:55;26.80;23.10
17984;DHT22;9117;52.420;20.728;2023-04-23T14:40:23;26.20;23.10
17984;DHT22;9117;52.420;20.728;2023-04-23T14:42:53;26.40;23.70
17984;DHT22;9117;52.420;20.728;2023-04-23T14:45:30;26.50;23.70
17984;DHT22;9117;52.420;20.728;2023-04-23T14:47:58;27.20;22.90
17984;DHT22;9117;52.420;20.728;2023-04-23T14:50:27;26.30;23.80
17984;DHT22;9117;52.420;20.728;2023-04-23T14:52:55;27.20;23.50
17984;DHT22;9117;52.420;20.728;2023-04-23T14:55:24;28.00;22.70
17984;DHT22;9117;52.420;20.728;2023-04-23T14:57:54;28.00;23.50
17984;DHT22;9117;52.420;20.728;2023-04-23T15:00:22;28.60;22.20
17984;DHT22;9117;52.420;20.728;2023-04-23T15:02:50;29.10;22.10
17984;DHT22;9117;52.420;20.728;2023-04-23T15:05:19;28.70;22.30
17984;DHT22;9117;52.420;20.728;2023-04-23T15:07:47;28.30;22.10
17984;DHT22;9117;52.420;20.728;2023-04-23T15:10:17;28.20;21.30
17984;DHT22;9117;52.420;20.728;2023-04-23T15:12:54;28.10;22.50
17984;DHT22;9117;52.420;20.728;2023-04-23T15:15:36;29.20;21.00
17984;DHT22;9117;52.420;20.728;2023-04-23T15:18:11;29.20;21.40
17984;DHT22;9117;52.420;20.728;2023-04-23T15:20:40;29.70;21.00
17984;DHT22;9117;52.420;20.728;2023-04-23T15:23:09;29.00;20.20
17984;DHT22;9117;52.420;20.728;2023-04-23T15:25:37;28.90;20.90
17984;DHT22;9117;52.420;20.728;2023-04-23T15:28:07;28.40;20.90
17984;DHT22;9117;52.420;20.728;2023-04-23T15:30:35;28.10;20.80
17984;DHT22;9117;52.420;20.728;2023-04-23T15:33:05;27.60;21.00
17984;DHT22;9117;52.420;20.728;2023-04-23T15:35:33;27.80;21.40
17984;DHT22;9117;52.420;20.728;2023-04-23T15:38:02;27.60;21.80
17984;DHT22;9117;52.420;20.728;2023-04-23T15:40:31;27.80;20.90
17984;DHT22;9117;52.420;20.728;2023-04-23T15:42:59;27.50;21.40
17984;DHT22;9117;52.420;20.728;2023-04-23T15:45:28;27.50;20.90
17984;DHT22;9117;52.420;20.728;2023-04-23T15:47:57;27.30;21.00
17984;DHT22;9117;52.420;20.728;2023-04-23T15:50:25;27.50;21.40
17984;DHT22;9117;52.420;20.728;2023-04-23T15:52:53;27.00;20.90